sensor_id;sensor_type;location;lat;lon;timestamp;P1;durP1;ratioP1;P2;durP2;ratioP2
49854;SDS011;35752;52.164;21.244;2022-07-17T00:00:46;4.15;;;1.30;;
49854;SDS011;35752;52.164;21.244;2022-07-17T00:03:12;2.33;;;1.75;;
49854;SDS011;35752;52.164;21.244;2022-07-17T00:05:39;4.32;;;1.58;;
49854;SDS011;35752;52.164;21.244;2022-07-17T00:08:06;4.95;;;1.60;;
49854;SDS011;35752;52.164;21.244;2022-07-17T00:10:33;5.63;;;1.77;;
49854;SDS011;35752;52.164;21.244;2022-07-17T00:13:00;3.72;;;1.73;;
49854;SDS011;35752;52.164;21.244;2022-07-17T00:15:25;7.90;;;1.73;;
49854;SDS011;35752;52.164;21.244;2022-07-17T00:17:51;4.00;;;1.70;;
49854;SDS011;35752;52.164;21.244;2022-07-17T00:20:17;5.35;;;1.50;;
49854;SDS011;35752;52.164;21.244;2022-07-17T00:22:43;2.97;;;1.38;;
49854;SDS011;35752;52.164;21.244;2022-07-17T00:25:09;6.20;;;1.38;;
49854;SDS011;35752;52.164;21.244;2022-07-17T00:27:35;5.30;;;1.60;;
49854;SDS011;35752;52.164;21.244;2022-07-17T00:30:02;3.67;;;1.70;;
49854;SDS011;35752;52.164;21.244;2022-07-17T00:32:29;7.97;;;1.98;;
49854;SDS011;35752;52.164;21.244;2022-07-17T00:34:55;5.97;;;1.48;;
49854;SDS011;35752;52.164;21.244;2022-07-17T00:37:20;4.30;;;1.40;;
49854;SDS011;35752;52.164;21.244;2022-07-17T00:39:46;2.58;;;1.27;;
49854;SDS011;35752;52.164;21.244;2022-07-17T00:42:12;5.90;;;1.55;;
49854;SDS011;35752;52.164;21.244;2022-07-17T00:44:39;4.63;;;1.60;;
49854;SDS011;35752;52.164;21.244;2022-07-17T00:47:12;2.70;;;1.25;;
49854;SDS011;35752;52.164;21.244;2022-07-17T00:49:39;2.65;;;1.00;;
49854;SDS011;35752;52.164;21.244;2022-07-17T00:52:05;4.00;;;1.70;;
49854;SDS011;35752;52.164;21.244;2022-07-17T00:54:33;3.78;;;1.95;;
49854;SDS011;35752;52.164;21.244;2022-07-17T00:57:00;5.53;;;1.70;;
49854;SDS011;35752;52.164;21.244;2022-07-17T00:59:30;3.08;;;1.42;;
49854;SDS011;35752;52.164;21.244;2022-07-17T01:01:58;3.97;;;1.40;;
49854;SDS011;35752;52.164;21.244;2022-07-17T01:04:24;4.40;;;1.33;;
49854;SDS011;35752;52.164;21.244;2022-07-17T01:06:50;3.45;;;1.38;;
49854;SDS011;35752;52.164;21.244;2022-07-17T01:09:15;4.03;;;1.90;;
49854;SDS011;35752;52.164;21.244;2022-07-17T01:11:41;6.05;;;1.90;;
49854;SDS011;35752;52.164;21.244;2022-07-17T01:14:07;5.70;;;1.50;;
49854;SDS011;35752;52.164;21.244;2022-07-17T01:16:33;4.82;;;0.90;;
49854;SDS011;35752;52.164;21.244;2022-07-17T01:19:00;4.40;;;1.25;;
49854;SDS011;35752;52.164;21.244;2022-07-17T01:21:25;5.45;;;1.55;;
49854;SDS011;35752;52.164;21.244;2022-07-17T01:24:06;4.90;;;1.65;;
49854;SDS011;35752;52.164;21.244;2022-07-17T01:26:31;4.78;;;1.50;;
49854;SDS011;35752;52.164;21.244;2022-07-17T01:28:57;3.75;;;1.83;;
49854;SDS011;35752;52.164;21.244;2022-07-17T01:31:23;5.93;;;1.85;;
49854;SDS011;35752;52.164;21.244;2022-07-17T01:33:49;2.97;;;1.40;;
49854;SDS011;35752;52.164;21.244;2022-07-17T01:36:15;5.13;;;1.42;;
49854;SDS011;35752;52.164;21.244;2022-07-17T01:38:40;7.05;;;2.10;;
49854;SDS011;35752;52.164;21.244;2022-07-17T01:41:06;3.47;;;1.70;;
49854;SDS011;35752;52.164;21.244;2022-07-17T01:43:32;5.28;;;1.42;;
49854;SDS011;35752;52.164;21.244;2022-07-17T01:45:57;3.80;;;1.55;;
49854;SDS011;35752;52.164;21.244;2022-07-17T01:48:24;6.50;;;1.98;;
49854;SDS011;35752;52.164;21.244;2022-07-17T01:50:50;5.40;;;1.83;;
49854;SDS011;35752;52.164;21.244;2022-07-17T01:53:16;4.13;;;1.83;;
49854;SDS011;35752;52.164;21.244;2022-07-17T01:55:42;3.95;;;2.17;;
49854;SDS011;35752;52.164;21.244;2022-07-17T01:58:08;4.40;;;1.90;;
49854;SDS011;35752;52.164;21.244;2022-07-17T02:00:34;6.15;;;1.70;;
49854;SDS011;35752;52.164;21.244;2022-07-17T02:03:00;6.55;;;1.80;;
49854;SDS011;35752;52.164;21.244;2022-07-17T02:05:25;4.70;;;1.73;;
49854;SDS011;35752;52.164;21.244;2022-07-17T02:07:51;6.70;;;1.77;;
49854;SDS011;35752;52.164;21.244;2022-07-17T02:10:17;4.80;;;1.50;;
49854;SDS011;35752;52.164;21.244;2022-07-17T02:12:43;2.25;;;1.55;;
49854;SDS011;35752;52.164;21.244;2022-07-17T02:15:09;3.50;;;2.00;;
49854;SDS011;35752;52.164;21.244;2022-07-17T02:17:35;4.20;;;1.55;;
49854;SDS011;35752;52.164;21.244;2022-07-17T02:20:01;4.88;;;1.95;;
49854;SDS011;35752;52.164;21.244;2022-07-17T02:22:27;2.47;;;1.50;;
49854;SDS011;35752;52.164;21.244;2022-07-17T02:24:53;4.82;;;2.08;;
49854;SDS011;35752;52.164;21.244;2022-07-17T02:27:19;5.90;;;1.90;;
49854;SDS011;35752;52.164;21.244;2022-07-17T02:29:44;9.93;;;2.13;;
49854;SDS011;35752;52.164;21.244;2022-07-17T02:32:10;4.97;;;1.90;;
49854;SDS011;35752;52.164;21.244;2022-07-17T02:34:36;2.90;;;1.80;;
49854;SDS011;35752;52.164;21.244;2022-07-17T02:37:01;5.60;;;2.30;;
49854;SDS011;35752;52.164;21.244;2022-07-17T02:39:27;4.40;;;2.03;;
49854;SDS011;35752;52.164;21.244;2022-07-17T02:41:53;7.43;;;2.97;;
49854;SDS011;35752;52.164;21.244;2022-07-17T02:44:19;3.10;;;1.95;;
49854;SDS011;35752;52.164;21.244;2022-07-17T02:46:44;4.90;;;1.77;;
49854;SDS011;35752;52.164;21.244;2022-07-17T02:49:10;4.05;;;2.10;;
49854;SDS011;35752;52.164;21.244;2022-07-17T02:51:36;5.05;;;2.40;;
49854;SDS011;35752;52.164;21.244;2022-07-17T02:54:01;8.10;;;2.47;;
49854;SDS011;35752;52.164;21.244;2022-07-17T02:56:27;5.20;;;2.22;;
49854;SDS011;35752;52.164;21.244;2022-07-17T02:58:53;8.60;;;2.92;;
49854;SDS011;35752;52.164;21.244;2022-07-17T03:01:18;4.82;;;2.78;;
49854;SDS011;35752;52.164;21.244;2022-07-17T03:03:44;8.20;;;2.67;;
49854;SDS011;35752;52.164;21.244;2022-07-17T03:06:10;7.68;;;2.95;;
49854;SDS011;35752;52.164;21.244;2022-07-17T03:08:35;6.40;;;3.55;;
49854;SDS011;35752;52.164;21.244;2022-07-17T03:11:01;3.95;;;2.95;;
49854;SDS011;35752;52.164;21.244;2022-07-17T03:13:27;5.57;;;3.03;;
49854;SDS011;35752;52.164;21.244;2022-07-17T03:15:53;6.32;;;3.53;;
49854;SDS011;35752;52.164;21.244;2022-07-17T03:18:19;9.05;;;3.78;;
49854;SDS011;35752;52.164;21.244;2022-07-17T03:20:45;8.00;;;3.83;;
49854;SDS011;35752;52.164;21.244;2022-07-17T03:23:10;5.43;;;3.53;;
49854;SDS011;35752;52.164;21.244;2022-07-17T03:25:36;9.93;;;3.00;;
49854;SDS011;35752;52.164;21.244;2022-07-17T03:28:02;6.40;;;3.30;;
49854;SDS011;35752;52.164;21.244;2022-07-17T03:30:28;9.32;;;3.95;;
49854;SDS011;35752;52.164;21.244;2022-07-17T03:32:53;4.80;;;3.53;;
49854;SDS011;35752;52.164;21.244;2022-07-17T03:35:19;8.88;;;3.97;;
49854;SDS011;35752;52.164;21.244;2022-07-17T03:37:45;6.68;;;4.03;;
49854;SDS011;35752;52.164;21.244;2022-07-17T03:40:10;7.45;;;3.22;;
49854;SDS011;35752;52.164;21.244;2022-07-17T03:42:37;10.65;;;3.38;;
49854;SDS011;35752;52.164;21.244;2022-07-17T03:45:03;5.85;;;3.38;;
49854;SDS011;35752;52.164;21.244;2022-07-17T03:47:29;6.47;;;3.20;;
49854;SDS011;35752;52.164;21.244;2022-07-17T03:49:54;9.88;;;3.00;;
49854;SDS011;35752;52.164;21.244;2022-07-17T03:52:20;10.95;;;4.05;;
49854;SDS011;35752;52.164;21.244;2022-07-17T03:54:46;7.38;;;3.85;;
49854;SDS011;35752;52.164;21.244;2022-07-17T03:57:11;4.70;;;3.20;;
49854;SDS011;35752;52.164;21.244;2022-07-17T03:59:37;5.93;;;3.60;;
49854;SDS011;35752;52.164;21.244;2022-07-17T04:02:03;5.32;;;3.22;;
49854;SDS011;35752;52.164;21.244;2022-07-17T04:04:28;7.40;;;3.95;;
49854;SDS011;35752;52.164;21.244;2022-07-17T04:06:54;9.02;;;3.85;;
49854;SDS011;35752;52.164;21.244;2022-07-17T04:09:20;8.95;;;3.33;;
49854;SDS011;35752;52.164;21.244;2022-07-17T04:11:45;5.75;;;2.83;;
49854;SDS011;35752;52.164;21.244;2022-07-17T04:14:11;5.10;;;2.72;;
49854;SDS011;35752;52.164;21.244;2022-07-17T04:16:37;5.88;;;2.65;;
49854;SDS011;35752;52.164;21.244;2022-07-17T04:19:03;6.00;;;2.67;;
49854;SDS011;35752;52.164;21.244;2022-07-17T04:21:28;8.77;;;2.78;;
49854;SDS011;35752;52.164;21.244;2022-07-17T04:23:54;4.53;;;2.70;;
49854;SDS011;35752;52.164;21.244;2022-07-17T04:26:20;13.10;;;2.97;;
49854;SDS011;35752;52.164;21.244;2022-07-17T04:28:45;5.05;;;2.03;;
49854;SDS011;35752;52.164;21.244;2022-07-17T04:31:11;5.20;;;1.90;;
49854;SDS011;35752;52.164;21.244;2022-07-17T04:33:37;4.50;;;2.38;;
49854;SDS011;35752;52.164;21.244;2022-07-17T04:36:03;7.88;;;2.30;;
49854;SDS011;35752;52.164;21.244;2022-07-17T04:38:29;4.13;;;1.75;;
49854;SDS011;35752;52.164;21.244;2022-07-17T04:40:54;4.22;;;2.17;;
49854;SDS011;35752;52.164;21.244;2022-07-17T04:43:20;9.15;;;2.03;;
49854;SDS011;35752;52.164;21.244;2022-07-17T04:45:46;6.55;;;2.33;;
49854;SDS011;35752;52.164;21.244;2022-07-17T04:48:11;7.68;;;2.30;;
49854;SDS011;35752;52.164;21.244;2022-07-17T04:50:37;4.72;;;2.10;;
49854;SDS011;35752;52.164;21.244;2022-07-17T04:53:03;4.40;;;2.05;;
49854;SDS011;35752;52.164;21.244;2022-07-17T04:55:29;5.13;;;2.58;;
49854;SDS011;35752;52.164;21.244;2022-07-17T04:57:54;6.53;;;2.13;;
49854;SDS011;35752;52.164;21.244;2022-07-17T05:00:20;9.52;;;2.28;;
49854;SDS011;35752;52.164;21.244;2022-07-17T05:02:46;4.97;;;2.30;;
49854;SDS011;35752;52.164;21.244;2022-07-17T05:05:12;4.85;;;1.90;;
49854;SDS011;35752;52.164;21.244;2022-07-17T05:07:38;6.28;;;2.33;;
49854;SDS011;35752;52.164;21.244;2022-07-17T05:10:04;11.63;;;2.47;;
49854;SDS011;35752;52.164;21.244;2022-07-17T05:12:30;7.05;;;2.58;;
49854;SDS011;35752;52.164;21.244;2022-07-17T05:14:56;5.15;;;2.35;;
49854;SDS011;35752;52.164;21.244;2022-07-17T05:17:22;11.70;;;2.35;;
49854;SDS011;35752;52.164;21.244;2022-07-17T05:19:48;5.93;;;1.80;;
49854;SDS011;35752;52.164;21.244;2022-07-17T05:22:14;4.45;;;1.73;;
49854;SDS011;35752;52.164;21.244;2022-07-17T05:24:40;4.43;;;1.65;;
49854;SDS011;35752;52.164;21.244;2022-07-17T05:27:05;5.05;;;1.98;;
49854;SDS011;35752;52.164;21.244;2022-07-17T05:29:31;9.13;;;2.00;;
49854;SDS011;35752;52.164;21.244;2022-07-17T05:31:57;4.25;;;1.77;;
49854;SDS011;35752;52.164;21.244;2022-07-17T05:34:22;5.28;;;2.30;;
49854;SDS011;35752;52.164;21.244;2022-07-17T05:36:48;4.63;;;1.52;;
49854;SDS011;35752;52.164;21.244;2022-07-17T05:39:14;3.95;;;1.65;;
49854;SDS011;35752;52.164;21.244;2022-07-17T05:41:40;4.68;;;1.55;;
49854;SDS011;35752;52.164;21.244;2022-07-17T05:44:05;2.40;;;1.80;;
49854;SDS011;35752;52.164;21.244;2022-07-17T05:46:31;6.03;;;1.52;;
49854;SDS011;35752;52.164;21.244;2022-07-17T05:48:57;4.10;;;1.83;;
49854;SDS011;35752;52.164;21.244;2022-07-17T05:51:23;5.00;;;2.10;;
49854;SDS011;35752;52.164;21.244;2022-07-17T05:53:48;5.75;;;1.85;;
49854;SDS011;35752;52.164;21.244;2022-07-17T05:56:14;6.05;;;1.35;;
49854;SDS011;35752;52.164;21.244;2022-07-17T05:58:40;4.13;;;1.50;;
49854;SDS011;35752;52.164;21.244;2022-07-17T06:01:05;2.65;;;1.30;;
49854;SDS011;35752;52.164;21.244;2022-07-17T06:03:31;14.18;;;2.08;;
49854;SDS011;35752;52.164;21.244;2022-07-17T06:05:57;4.43;;;1.17;;
49854;SDS011;35752;52.164;21.244;2022-07-17T06:08:22;4.43;;;1.20;;
49854;SDS011;35752;52.164;21.244;2022-07-17T06:10:48;1.77;;;0.90;;
49854;SDS011;35752;52.164;21.244;2022-07-17T06:13:14;5.97;;;1.48;;
49854;SDS011;35752;52.164;21.244;2022-07-17T06:15:39;4.38;;;1.42;;
49854;SDS011;35752;52.164;21.244;2022-07-17T06:18:05;2.75;;;0.93;;
49854;SDS011;35752;52.164;21.244;2022-07-17T06:20:31;5.90;;;1.10;;
49854;SDS011;35752;52.164;21.244;2022-07-17T06:22:57;5.15;;;0.90;;
49854;SDS011;35752;52.164;21.244;2022-07-17T06:25:23;2.22;;;1.00;;
49854;SDS011;35752;52.164;21.244;2022-07-17T06:27:49;1.90;;;1.00;;
49854;SDS011;35752;52.164;21.244;2022-07-17T06:30:15;6.43;;;1.30;;
49854;SDS011;35752;52.164;21.244;2022-07-17T06:32:41;3.67;;;0.82;;
49854;SDS011;35752;52.164;21.244;2022-07-17T06:35:07;4.00;;;1.15;;
49854;SDS011;35752;52.164;21.244;2022-07-17T06:37:34;2.75;;;1.30;;
49854;SDS011;35752;52.164;21.244;2022-07-17T06:40:00;5.00;;;1.45;;
49854;SDS011;35752;52.164;21.244;2022-07-17T06:42:27;5.10;;;1.40;;
49854;SDS011;35752;52.164;21.244;2022-07-17T06:44:52;3.40;;;1.98;;
49854;SDS011;35752;52.164;21.244;2022-07-17T06:47:18;4.60;;;1.33;;
49854;SDS011;35752;52.164;21.244;2022-07-17T06:49:44;4.38;;;1.50;;
49854;SDS011;35752;52.164;21.244;2022-07-17T06:52:09;3.75;;;1.38;;
49854;SDS011;35752;52.164;21.244;2022-07-17T06:54:35;4.30;;;1.73;;
49854;SDS011;35752;52.164;21.244;2022-07-17T06:57:01;4.25;;;1.20;;
49854;SDS011;35752;52.164;21.244;2022-07-17T06:59:27;5.82;;;1.42;;
49854;SDS011;35752;52.164;21.244;2022-07-17T07:01:53;3.40;;;1.10;;
49854;SDS011;35752;52.164;21.244;2022-07-17T07:04:18;4.13;;;1.40;;
49854;SDS011;35752;52.164;21.244;2022-07-17T07:06:44;6.82;;;1.23;;
49854;SDS011;35752;52.164;21.244;2022-07-17T07:09:10;4.88;;;0.98;;
49854;SDS011;35752;52.164;21.244;2022-07-17T07:11:38;4.00;;;0.98;;
49854;SDS011;35752;52.164;21.244;2022-07-17T07:14:05;10.30;;;1.20;;
49854;SDS011;35752;52.164;21.244;2022-07-17T07:16:32;3.80;;;1.17;;
49854;SDS011;35752;52.164;21.244;2022-07-17T07:18:58;2.45;;;1.20;;
49854;SDS011;35752;52.164;21.244;2022-07-17T07:21:24;3.70;;;1.23;;
49854;SDS011;35752;52.164;21.244;2022-07-17T07:23:51;6.30;;;1.60;;
49854;SDS011;35752;52.164;21.244;2022-07-17T07:26:17;2.78;;;1.10;;
49854;SDS011;35752;52.164;21.244;2022-07-17T07:28:43;6.25;;;1.70;;
49854;SDS011;35752;52.164;21.244;2022-07-17T07:31:09;3.38;;;1.98;;
49854;SDS011;35752;52.164;21.244;2022-07-17T07:33:35;5.53;;;2.42;;
49854;SDS011;35752;52.164;21.244;2022-07-17T07:36:01;5.60;;;2.45;;
49854;SDS011;35752;52.164;21.244;2022-07-17T07:38:28;4.93;;;2.40;;
49854;SDS011;35752;52.164;21.244;2022-07-17T07:40:53;3.65;;;2.17;;
49854;SDS011;35752;52.164;21.244;2022-07-17T07:43:20;4.03;;;2.03;;
49854;SDS011;35752;52.164;21.244;2022-07-17T07:45:45;3.85;;;2.55;;
49854;SDS011;35752;52.164;21.244;2022-07-17T07:48:11;5.10;;;2.10;;
49854;SDS011;35752;52.164;21.244;2022-07-17T07:50:37;2.88;;;1.90;;
49854;SDS011;35752;52.164;21.244;2022-07-17T07:53:03;7.75;;;2.22;;
49854;SDS011;35752;52.164;21.244;2022-07-17T07:55:28;2.08;;;1.50;;
49854;SDS011;35752;52.164;21.244;2022-07-17T07:58:01;3.15;;;2.05;;
49854;SDS011;35752;52.164;21.244;2022-07-17T08:00:31;4.45;;;2.25;;
49854;SDS011;35752;52.164;21.244;2022-07-17T08:02:57;6.28;;;2.00;;
49854;SDS011;35752;52.164;21.244;2022-07-17T08:05:22;8.63;;;2.20;;
49854;SDS011;35752;52.164;21.244;2022-07-17T08:07:48;3.25;;;1.85;;
49854;SDS011;35752;52.164;21.244;2022-07-17T08:10:14;5.70;;;1.98;;
49854;SDS011;35752;52.164;21.244;2022-07-17T08:12:39;4.90;;;2.28;;
49854;SDS011;35752;52.164;21.244;2022-07-17T08:15:05;6.97;;;2.42;;
49854;SDS011;35752;52.164;21.244;2022-07-17T08:17:31;3.15;;;1.73;;
49854;SDS011;35752;52.164;21.244;2022-07-17T08:19:57;4.25;;;1.77;;
49854;SDS011;35752;52.164;21.244;2022-07-17T08:22:23;4.03;;;1.75;;
49854;SDS011;35752;52.164;21.244;2022-07-17T08:24:48;3.75;;;1.70;;
49854;SDS011;35752;52.164;21.244;2022-07-17T08:27:14;4.28;;;1.63;;
49854;SDS011;35752;52.164;21.244;2022-07-17T08:29:40;3.20;;;1.77;;
49854;SDS011;35752;52.164;21.244;2022-07-17T08:32:05;6.60;;;2.22;;
49854;SDS011;35752;52.164;21.244;2022-07-17T08:34:31;3.28;;;1.70;;
49854;SDS011;35752;52.164;21.244;2022-07-17T08:36:57;4.00;;;1.75;;
49854;SDS011;35752;52.164;21.244;2022-07-17T08:39:23;7.70;;;2.17;;
49854;SDS011;35752;52.164;21.244;2022-07-17T08:41:48;4.55;;;1.70;;
49854;SDS011;35752;52.164;21.244;2022-07-17T08:44:14;4.03;;;1.30;;
49854;SDS011;35752;52.164;21.244;2022-07-17T08:46:40;3.28;;;1.50;;
49854;SDS011;35752;52.164;21.244;2022-07-17T08:49:06;5.15;;;1.30;;
49854;SDS011;35752;52.164;21.244;2022-07-17T08:51:33;3.05;;;1.25;;
49854;SDS011;35752;52.164;21.244;2022-07-17T08:53:59;3.92;;;1.23;;
49854;SDS011;35752;52.164;21.244;2022-07-17T08:56:26;3.75;;;1.20;;
49854;SDS011;35752;52.164;21.244;2022-07-17T08:58:52;3.45;;;1.17;;
49854;SDS011;35752;52.164;21.244;2022-07-17T09:01:19;2.97;;;1.20;;
49854;SDS011;35752;52.164;21.244;2022-07-17T09:04:00;4.40;;;1.33;;
49854;SDS011;35752;52.164;21.244;2022-07-17T09:06:31;4.40;;;1.10;;
49854;SDS011;35752;52.164;21.244;2022-07-17T09:09:05;4.72;;;1.00;;
49854;SDS011;35752;52.164;21.244;2022-07-17T09:11:47;2.97;;;1.10;;
49854;SDS011;35752;52.164;21.244;2022-07-17T09:14:15;2.25;;;0.95;;
49854;SDS011;35752;52.164;21.244;2022-07-17T09:19:35;5.95;;;1.10;;
49854;SDS011;35752;52.164;21.244;2022-07-17T09:27:15;1.38;;;0.70;;
49854;SDS011;35752;52.164;21.244;2022-07-17T09:32:33;3.60;;;0.93;;
49854;SDS011;35752;52.164;21.244;2022-07-17T09:35:00;4.40;;;0.90;;
49854;SDS011;35752;52.164;21.244;2022-07-17T09:37:28;6.18;;;1.13;;
49854;SDS011;35752;52.164;21.244;2022-07-17T09:39:55;1.73;;;0.88;;
49854;SDS011;35752;52.164;21.244;2022-07-17T09:42:27;4.05;;;0.80;;
49854;SDS011;35752;52.164;21.244;2022-07-17T09:45:06;3.03;;;1.02;;
49854;SDS011;35752;52.164;21.244;2022-07-17T09:47:34;5.40;;;1.08;;
49854;SDS011;35752;52.164;21.244;2022-07-17T09:50:03;2.90;;;1.00;;
49854;SDS011;35752;52.164;21.244;2022-07-17T09:52:32;3.10;;;0.80;;
49854;SDS011;35752;52.164;21.244;2022-07-17T09:55:00;3.50;;;0.90;;
49854;SDS011;35752;52.164;21.244;2022-07-17T09:57:29;1.58;;;0.60;;
49854;SDS011;35752;52.164;21.244;2022-07-17T10:00:01;2.08;;;0.77;;
49854;SDS011;35752;52.164;21.244;2022-07-17T10:02:33;7.18;;;0.60;;
49854;SDS011;35752;52.164;21.244;2022-07-17T10:04:59;3.90;;;0.98;;
49854;SDS011;35752;52.164;21.244;2022-07-17T10:07:24;4.38;;;0.93;;
49854;SDS011;35752;52.164;21.244;2022-07-17T10:09:51;2.97;;;1.05;;
49854;SDS011;35752;52.164;21.244;2022-07-17T10:12:17;2.97;;;0.88;;
49854;SDS011;35752;52.164;21.244;2022-07-17T10:14:46;3.65;;;0.70;;
49854;SDS011;35752;52.164;21.244;2022-07-17T10:17:13;2.00;;;0.50;;
49854;SDS011;35752;52.164;21.244;2022-07-17T10:19:48;3.17;;;0.70;;
49854;SDS011;35752;52.164;21.244;2022-07-17T10:22:15;15.73;;;1.20;;
49854;SDS011;35752;52.164;21.244;2022-07-17T10:24:49;4.50;;;1.10;;
49854;SDS011;35752;52.164;21.244;2022-07-17T10:27:19;2.03;;;0.68;;
49854;SDS011;35752;52.164;21.244;2022-07-17T10:32:32;2.38;;;0.60;;
49854;SDS011;35752;52.164;21.244;2022-07-17T10:35:01;2.42;;;0.70;;
49854;SDS011;35752;52.164;21.244;2022-07-17T10:42:41;2.47;;;0.73;;
49854;SDS011;35752;52.164;21.244;2022-07-17T10:45:11;3.60;;;1.13;;
49854;SDS011;35752;52.164;21.244;2022-07-17T10:47:52;3.83;;;0.80;;
49854;SDS011;35752;52.164;21.244;2022-07-17T10:50:21;1.63;;;0.82;;
49854;SDS011;35752;52.164;21.244;2022-07-17T10:53:08;2.75;;;0.85;;
49854;SDS011;35752;52.164;21.244;2022-07-17T10:55:40;4.00;;;0.70;;
49854;SDS011;35752;52.164;21.244;2022-07-17T10:58:42;4.18;;;0.85;;
49854;SDS011;35752;52.164;21.244;2022-07-17T11:03:30;1.40;;;0.32;;
49854;SDS011;35752;52.164;21.244;2022-07-17T11:06:21;3.47;;;0.98;;
49854;SDS011;35752;52.164;21.244;2022-07-17T11:08:52;1.98;;;0.45;;
49854;SDS011;35752;52.164;21.244;2022-07-17T11:11:43;0.93;;;0.40;;
49854;SDS011;35752;52.164;21.244;2022-07-17T11:14:16;1.90;;;0.98;;
49854;SDS011;35752;52.164;21.244;2022-07-17T11:19:21;2.50;;;0.93;;
49854;SDS011;35752;52.164;21.244;2022-07-17T11:21:50;3.95;;;0.70;;
49854;SDS011;35752;52.164;21.244;2022-07-17T11:24:17;1.77;;;0.60;;
49854;SDS011;35752;52.164;21.244;2022-07-17T11:26:43;6.00;;;0.70;;
49854;SDS011;35752;52.164;21.244;2022-07-17T11:29:10;1.80;;;0.57;;
49854;SDS011;35752;52.164;21.244;2022-07-17T11:31:36;2.95;;;0.57;;
49854;SDS011;35752;52.164;21.244;2022-07-17T11:34:03;1.42;;;0.70;;
49854;SDS011;35752;52.164;21.244;2022-07-17T11:36:35;2.83;;;0.80;;
49854;SDS011;35752;52.164;21.244;2022-07-17T11:39:06;3.15;;;1.15;;
49854;SDS011;35752;52.164;21.244;2022-07-17T11:41:41;3.28;;;0.70;;
49854;SDS011;35752;52.164;21.244;2022-07-17T11:44:11;5.03;;;1.00;;
49854;SDS011;35752;52.164;21.244;2022-07-17T11:46:42;3.60;;;0.63;;
49854;SDS011;35752;52.164;21.244;2022-07-17T11:49:10;2.35;;;0.63;;
49854;SDS011;35752;52.164;21.244;2022-07-17T11:51:48;6.05;;;0.95;;
49854;SDS011;35752;52.164;21.244;2022-07-17T11:54:14;1.95;;;0.68;;
49854;SDS011;35752;52.164;21.244;2022-07-17T11:56:41;6.00;;;0.90;;
49854;SDS011;35752;52.164;21.244;2022-07-17T11:59:22;1.75;;;0.55;;
49854;SDS011;35752;52.164;21.244;2022-07-17T12:01:53;1.45;;;0.65;;
49854;SDS011;35752;52.164;21.244;2022-07-17T12:04:19;3.33;;;0.60;;
49854;SDS011;35752;52.164;21.244;2022-07-17T12:06:46;2.83;;;0.65;;
49854;SDS011;35752;52.164;21.244;2022-07-17T12:09:29;2.72;;;0.80;;
49854;SDS011;35752;52.164;21.244;2022-07-17T12:12:02;1.55;;;0.40;;
49854;SDS011;35752;52.164;21.244;2022-07-17T12:14:28;1.65;;;0.70;;
49854;SDS011;35752;52.164;21.244;2022-07-17T12:16:57;3.47;;;0.93;;
49854;SDS011;35752;52.164;21.244;2022-07-17T12:19:28;1.85;;;0.50;;
49854;SDS011;35752;52.164;21.244;2022-07-17T12:21:59;1.15;;;0.60;;
49854;SDS011;35752;52.164;21.244;2022-07-17T12:27:03;2.22;;;0.77;;
49854;SDS011;35752;52.164;21.244;2022-07-17T12:29:31;5.18;;;1.13;;
49854;SDS011;35752;52.164;21.244;2022-07-17T12:32:07;6.28;;;0.70;;
49854;SDS011;35752;52.164;21.244;2022-07-17T12:34:36;5.35;;;1.10;;
49854;SDS011;35752;52.164;21.244;2022-07-17T12:37:04;2.17;;;0.47;;
49854;SDS011;35752;52.164;21.244;2022-07-17T12:39:30;2.80;;;0.60;;
49854;SDS011;35752;52.164;21.244;2022-07-17T12:41:56;1.77;;;0.43;;
49854;SDS011;35752;52.164;21.244;2022-07-17T12:44:22;3.75;;;0.75;;
49854;SDS011;35752;52.164;21.244;2022-07-17T12:46:48;2.05;;;0.70;;
49854;SDS011;35752;52.164;21.244;2022-07-17T12:49:13;3.42;;;0.70;;
49854;SDS011;35752;52.164;21.244;2022-07-17T12:51:39;1.23;;;0.60;;
49854;SDS011;35752;52.164;21.244;2022-07-17T12:54:05;4.22;;;0.70;;
49854;SDS011;35752;52.164;21.244;2022-07-17T12:56:31;2.65;;;0.50;;
49854;SDS011;35752;52.164;21.244;2022-07-17T12:58:57;6.13;;;0.95;;
49854;SDS011;35752;52.164;21.244;2022-07-17T13:01:24;1.38;;;0.55;;
49854;SDS011;35752;52.164;21.244;2022-07-17T13:03:49;6.20;;;0.52;;
49854;SDS011;35752;52.164;21.244;2022-07-17T13:06:15;1.98;;;0.50;;
49854;SDS011;35752;52.164;21.244;2022-07-17T13:08:41;3.17;;;0.80;;
49854;SDS011;35752;52.164;21.244;2022-07-17T13:11:06;1.30;;;0.60;;
49854;SDS011;35752;52.164;21.244;2022-07-17T13:13:32;1.50;;;0.60;;
49854;SDS011;35752;52.164;21.244;2022-07-17T13:15:58;3.13;;;0.75;;
49854;SDS011;35752;52.164;21.244;2022-07-17T13:18:24;2.22;;;0.77;;
49854;SDS011;35752;52.164;21.244;2022-07-17T13:20:50;2.10;;;0.57;;
49854;SDS011;35752;52.164;21.244;2022-07-17T13:23:16;3.05;;;0.50;;
49854;SDS011;35752;52.164;21.244;2022-07-17T13:25:42;2.10;;;0.40;;
49854;SDS011;35752;52.164;21.244;2022-07-17T13:28:08;1.40;;;0.50;;
49854;SDS011;35752;52.164;21.244;2022-07-17T13:30:35;2.53;;;0.40;;
49854;SDS011;35752;52.164;21.244;2022-07-17T13:33:00;0.88;;;0.30;;
49854;SDS011;35752;52.164;21.244;2022-07-17T13:35:27;9.32;;;0.70;;
49854;SDS011;35752;52.164;21.244;2022-07-17T13:37:53;3.03;;;0.38;;
49854;SDS011;35752;52.164;21.244;2022-07-17T13:40:19;1.13;;;0.30;;
49854;SDS011;35752;52.164;21.244;2022-07-17T13:42:45;1.38;;;0.50;;
49854;SDS011;35752;52.164;21.244;2022-07-17T13:45:11;2.08;;;0.30;;
49854;SDS011;35752;52.164;21.244;2022-07-17T13:47:38;3.28;;;0.60;;
49854;SDS011;35752;52.164;21.244;2022-07-17T13:50:04;1.75;;;0.43;;
49854;SDS011;35752;52.164;21.244;2022-07-17T13:52:30;0.82;;;0.30;;
49854;SDS011;35752;52.164;21.244;2022-07-17T13:54:56;1.55;;;0.30;;
49854;SDS011;35752;52.164;21.244;2022-07-17T13:57:22;0.95;;;0.32;;
49854;SDS011;35752;52.164;21.244;2022-07-17T13:59:49;1.73;;;0.32;;
49854;SDS011;35752;52.164;21.244;2022-07-17T14:02:15;1.15;;;0.50;;
49854;SDS011;35752;52.164;21.244;2022-07-17T14:04:41;1.80;;;0.30;;
49854;SDS011;35752;52.164;21.244;2022-07-17T14:07:07;1.20;;;0.32;;
49854;SDS011;35752;52.164;21.244;2022-07-17T14:09:32;2.78;;;0.50;;
49854;SDS011;35752;52.164;21.244;2022-07-17T14:11:58;1.92;;;0.45;;
49854;SDS011;35752;52.164;21.244;2022-07-17T14:14:24;2.40;;;0.50;;
49854;SDS011;35752;52.164;21.244;2022-07-17T14:16:50;3.22;;;1.00;;
49854;SDS011;35752;52.164;21.244;2022-07-17T14:19:16;2.03;;;0.93;;
49854;SDS011;35752;52.164;21.244;2022-07-17T14:21:41;2.15;;;0.50;;
49854;SDS011;35752;52.164;21.244;2022-07-17T14:24:07;1.83;;;0.75;;
49854;SDS011;35752;52.164;21.244;2022-07-17T14:26:33;2.72;;;0.80;;
49854;SDS011;35752;52.164;21.244;2022-07-17T14:29:00;1.23;;;0.40;;
49854;SDS011;35752;52.164;21.244;2022-07-17T14:31:27;3.05;;;0.55;;
49854;SDS011;35752;52.164;21.244;2022-07-17T14:33:53;1.98;;;0.30;;
49854;SDS011;35752;52.164;21.244;2022-07-17T14:36:19;1.52;;;0.47;;
49854;SDS011;35752;52.164;21.244;2022-07-17T14:38:45;2.00;;;0.30;;
49854;SDS011;35752;52.164;21.244;2022-07-17T14:41:11;1.13;;;0.30;;
49854;SDS011;35752;52.164;21.244;2022-07-17T14:43:37;2.70;;;0.70;;
49854;SDS011;35752;52.164;21.244;2022-07-17T14:46:03;1.35;;;0.35;;
49854;SDS011;35752;52.164;21.244;2022-07-17T14:48:29;2.95;;;0.43;;
49854;SDS011;35752;52.164;21.244;2022-07-17T14:50:56;1.33;;;0.35;;
49854;SDS011;35752;52.164;21.244;2022-07-17T14:53:21;2.58;;;1.05;;
49854;SDS011;35752;52.164;21.244;2022-07-17T14:55:47;1.10;;;0.50;;
49854;SDS011;35752;52.164;21.244;2022-07-17T14:58:13;1.80;;;0.40;;